Have a Safe July 4th! 

Flight Track Log - Related Links

Times and Time Zones

All times are in EDT time to prevent confusion due to time zone crossing. See the AAL667 flight status page for this flight to view local times or setup timezone preferences in your user account.

Time Position Orientation Groundspeed Altitude Reporting Facility
EDT Latitude Longitude Course Direction KTS MPH feet Rate Location/Type
Tue 11:47:18 PM 32.8833 -97.0500 293° West 186 214 1,700  Level Dallas / Fort Worth TRACON
Tue 11:48:36 PM 32.8167 -97.0500 180° South 226 260 4,200 2,261 Climbing Dallas / Fort Worth TRACON
Tue 11:49:36 PM 32.7500 -97.0500 180° South 246 283 6,900 2,255 Climbing Dallas / Fort Worth TRACON
Tue 11:50:00 PM 32.7204 -97.3560 293° West  Level FlightAware Approximate
Tue 11:51:00 PM 32.7652 -97.4792 293° West  Level FlightAware Approximate
Tue 11:51:21 PM 32.6911 -97.1764 241° Southwest 288 331 10,400  Level Fort Worth Center
Tue 11:52:00 PM 32.8094 -97.6028 293° West  Level FlightAware Approximate
Tue 11:52:21 PM 32.7058 -97.2850 279° West 320 368 12,100  Level Fort Worth Center
Tue 11:53:21 PM 32.7394 -97.3839 292° West 347 399 14,500 2,400 Climbing Fort Worth Center
Tue 11:54:21 PM 32.7853 -97.5072 294° West 364 419 16,900 2,300 Climbing Fort Worth Center
Tue 11:55:21 PM 32.8228 -97.6161 292° West 384 442 19,100 2,200 Climbing Fort Worth Center
Tue 11:56:21 PM 32.8622 -97.7547 289° West 405 466 21,300 1,800 Climbing Fort Worth Center
Tue 11:57:21 PM 32.8617 -97.8733 270° West 406 467 22,700 1,500 Climbing Fort Worth Center
Tue 11:58:21 PM 32.8672 -98.0317 272° West 425 489 24,300 1,450 Climbing Fort Worth Center
Tue 11:59:21 PM 32.9083 -98.1706 289° West 430 495 25,600 1,400 Climbing Fort Worth Center
Wed 12:00:21 AM 32.9597 -98.3022 295° West 430 495 27,100 1,500 Climbing Fort Worth Center
Wed 12:01:21 AM 33.0108 -98.4392 294° West 443 510 28,600 1,600 Climbing Fort Worth Center
Wed 12:02:21 AM 33.0575 -98.5686 293° West 443 510 30,300 1,450 Climbing Fort Worth Center
Wed 12:03:21 AM 33.1064 -98.7031 293° West 438 504 31,500 1,200 Climbing Fort Worth Center
Wed 12:04:21 AM 33.1531 -98.8378 293° West 438 504 32,700 1,100 Climbing Fort Worth Center
Wed 12:05:21 AM 33.2014 -98.9725 293° West 438 504 33,700 650 Climbing Fort Worth Center
Wed 12:06:21 AM 33.2497 -99.1025 294° West 438 504 34,000 150 Climbing Fort Worth Center
Wed 12:07:21 AM 33.2981 -99.2378 293° West 438 504 34,000  Level Fort Worth Center
Wed 12:08:21 AM 33.3439 -99.3731 292° West 438 504 34,000  Level Fort Worth Center
Wed 12:09:21 AM 33.3919 -99.5058 293° West 438 504 34,000  Level Fort Worth Center
Wed 12:10:21 AM 33.4375 -99.6414 292° West 438 504 34,000  Level Fort Worth Center
Wed 12:11:21 AM 33.4853 -99.7769 293° West 443 510 34,000  Level Fort Worth Center
Wed 12:12:21 AM 33.5328 -99.9103 293° West 438 504 34,000  Level Fort Worth Center
Wed 12:13:21 AM 33.5781 -100.0464 292° West 438 504 34,000  Level Fort Worth Center
Wed 12:14:21 AM 33.6231 -100.1800 292° West 438 504 34,000  Level Fort Worth Center
Wed 12:15:21 AM 33.6700 -100.3136 293° West 438 504 34,000  Level Fort Worth Center
Wed 12:16:21 AM 33.7150 -100.4475 292° West 438 504 34,000  Level Fort Worth Center
Wed 12:17:21 AM 33.7597 -100.5814 292° West 438 504 34,000  Level Fort Worth Center
Wed 12:18:21 AM 33.8042 -100.7131 292° West 438 504 34,000  Level Fort Worth Center
Wed 12:19:21 AM 33.8464 -100.8497 290° West 438 504 34,000  Level Fort Worth Center
Wed 12:20:21 AM 33.8950 -100.9792 294° West 438 504 34,000  Level Fort Worth Center
Wed 12:21:21 AM 33.9369 -101.1136 291° West 438 504 34,000  Level Fort Worth Center
Wed 12:22:21 AM 33.9850 -101.2508 293° West 438 504 34,000  Level Fort Worth Center
Wed 12:23:21 AM 34.0289 -101.3856 291° West 438 504 34,000  Level Fort Worth Center
Wed 12:24:21 AM 34.0725 -101.5231 291° West 438 504 34,000  Level Fort Worth Center
Wed 12:25:21 AM 34.1181 -101.6556 293° West 438 504 34,000  Level Fort Worth Center
Wed 12:26:21 AM 34.1633 -101.7933 292° West 444 511 34,000  Level Fort Worth Center
Wed 12:27:21 AM 34.2067 -101.9286 291° West 437 503 34,000  Level Fort Worth Center
Wed 12:28:21 AM 34.2439 -102.0511 290° West 437 503 34,000  Level Fort Worth Center
Wed 12:29:21 AM 34.2925 -102.1969 292° West 443 510 34,000  Level Fort Worth Center
Wed 12:30:21 AM 34.3239 -102.3069 289° West 437 503 34,000  Level Fort Worth Center
Wed 12:31:40 AM 34.3928 -102.5144 292° West 430 495 34,000  Level Albuquerque Center
Wed 12:32:42 AM 34.4361 -102.6514 291° West 433 498 34,000  Level Albuquerque Center
Wed 12:33:43 AM 34.4792 -102.7869 291° West 432 497 34,000  Level Albuquerque Center
Wed 12:34:44 AM 34.5036 -102.9111 283° West 429 494 34,000  Level Albuquerque Center
Wed 12:35:45 AM 34.5219 -103.0578 279° West 434 499 34,000  Level Albuquerque Center
Wed 12:36:46 AM 34.5428 -103.2289 278° West 435 501 34,000  Level Albuquerque Center
Wed 12:37:47 AM 34.5600 -103.3747 278° West 433 498 34,000  Level Albuquerque Center
Wed 12:38:48 AM 34.5772 -103.5208 278° West 434 499 34,000  Level Albuquerque Center
Wed 12:39:49 AM 34.6025 -103.6672 282° West 437 503 34,000  Level Albuquerque Center
Wed 12:40:50 AM 34.6394 -103.8081 288° West 435 501 34,000  Level Albuquerque Center
Wed 12:41:51 AM 34.6733 -103.9500 286° West 433 498 34,000  Level Albuquerque Center
Wed 12:42:52 AM 34.7072 -104.0925 286° West 433 498 34,000  Level Albuquerque Center
Wed 12:43:53 AM 34.7422 -104.2336 287° West 432 497 34,000  Level Albuquerque Center
Wed 12:44:54 AM 34.7769 -104.3761 287° West 432 497 34,000  Level Albuquerque Center
Wed 12:45:55 AM 34.8108 -104.5178 286° West 431 496 34,000  Level Albuquerque Center
Wed 12:46:56 AM 34.8397 -104.6628 284° West 432 497 34,000  Level Albuquerque Center
Wed 12:47:57 AM 34.8522 -104.8094 276° West 432 497 34,000 -393 Level Albuquerque Center
Wed 12:48:58 AM 34.8656 -104.9572 276° West 433 498 33,200 -1,328 Descending Albuquerque Center
Wed 12:49:59 AM 34.8794 -105.1056 277° West 435 501 31,300 -2,213 Descending Albuquerque Center
Wed 12:51:00 AM 34.8925 -105.2517 276° West 432 497 28,700 -2,557 Descending Albuquerque Center
Wed 12:52:01 AM 34.9056 -105.3950 276° West 425 489 26,100 -2,066 Descending Albuquerque Center
Wed 12:53:02 AM 34.9194 -105.5339 277° West 415 478 24,500 -1,770 Descending Albuquerque Center
Wed 12:54:03 AM 34.9308 -105.6639 276° West 392 451 22,500 -1,967 Descending Albuquerque Center
Wed 12:55:04 AM 34.9406 -105.7900 275° West 375 432 20,500 -1,815 Descending Albuquerque Center
Wed 12:56:02 AM 34.9481 -105.9117 274° West 360 414 18,900 -1,424 Descending Albuquerque Center
Wed 12:57:02 AM 34.9556 -106.0239 275° West 338 389 17,700 -1,438 Descending Albuquerque Center
Wed 12:58:03 AM 34.9556 -106.1303 270° West 306 352 16,000 -1,680 Descending Albuquerque Center
Wed 12:59:07 AM 34.9594 -106.2281 273° West 305 351 14,200 -1,785 Descending Albuquerque Center
Wed 01:00:04 AM 34.9586 -106.3394 270° West 296 341 12,400 -1,678 Descending Albuquerque Center
Wed 01:01:05 AM 34.9569 -106.4383 269° West 293 337 10,900 -1,190 Descending Albuquerque Center
Wed 01:02:05 AM 34.9558 -106.5294 269° West 254 292 10,000 -768 Descending Albuquerque Center
Wed 01:03:10 AM 34.9222 -106.5886 235° Southwest 269 310 9,300 -952 Descending Albuquerque Center
Wed 01:04:11 AM 34.8981 -106.6578 247° West 255 293 8,000 -1,279 Descending Albuquerque Center

Login

Don't have an account? Register now (free) for customized features, flight alerts, and more!